sensor_id;sensor_type;location;lat;lon;timestamp;temperature;humidity
484;DHT22;228;48.922;12.198;2022-12-20T00:01:36;2.80;66.60
484;DHT22;228;48.922;12.198;2022-12-20T00:04:04;2.70;66.10
484;DHT22;228;48.922;12.198;2022-12-20T00:06:30;2.50;66.60
484;DHT22;228;48.922;12.198;2022-12-20T00:09:01;2.40;67.10
484;DHT22;228;48.922;12.198;2022-12-20T00:11:29;1.90;68.30
484;DHT22;228;48.922;12.198;2022-12-20T00:13:55;1.40;70.60
484;DHT22;228;48.922;12.198;2022-12-20T00:16:24;1.30;71.90
484;DHT22;228;48.922;12.198;2022-12-20T00:19:00;1.50;71.50
484;DHT22;228;48.922;12.198;2022-12-20T00:21:29;1.40;71.50
484;DHT22;228;48.922;12.198;2022-12-20T00:23:56;1.70;71.20
484;DHT22;228;48.922;12.198;2022-12-20T00:26:24;1.70;71.30
484;DHT22;228;48.922;12.198;2022-12-20T00:28:53;1.90;70.50
484;DHT22;228;48.922;12.198;2022-12-20T00:31:21;1.90;70.40
484;DHT22;228;48.922;12.198;2022-12-20T00:33:50;2.20;69.30
484;DHT22;228;48.922;12.198;2022-12-20T00:36:19;2.10;68.90
484;DHT22;228;48.922;12.198;2022-12-20T00:38:50;1.80;69.30
484;DHT22;228;48.922;12.198;2022-12-20T00:41:20;1.80;70.10
484;DHT22;228;48.922;12.198;2022-12-20T00:43:47;2.20;69.70
484;DHT22;228;48.922;12.198;2022-12-20T00:46:15;2.00;70.20
484;DHT22;228;48.922;12.198;2022-12-20T00:48:42;2.30;69.30
484;DHT22;228;48.922;12.198;2022-12-20T00:51:11;2.60;68.20
484;DHT22;228;48.922;12.198;2022-12-20T00:53:38;2.60;67.40
484;DHT22;228;48.922;12.198;2022-12-20T00:56:06;2.20;68.10
484;DHT22;228;48.922;12.198;2022-12-20T00:58:34;2.20;69.40
484;DHT22;228;48.922;12.198;2022-12-20T01:01:02;2.40;69.00
484;DHT22;228;48.922;12.198;2022-12-20T01:03:30;2.40;68.90
484;DHT22;228;48.922;12.198;2022-12-20T01:05:59;2.10;69.30
484;DHT22;228;48.922;12.198;2022-12-20T01:08:28;2.20;69.40
484;DHT22;228;48.922;12.198;2022-12-20T01:11:00;2.20;69.30
484;DHT22;228;48.922;12.198;2022-12-20T01:13:30;1.80;69.80
484;DHT22;228;48.922;12.198;2022-12-20T01:16:06;1.30;71.80
484;DHT22;228;48.922;12.198;2022-12-20T01:18:42;1.40;72.70
484;DHT22;228;48.922;12.198;2022-12-20T01:21:13;1.10;73.80
484;DHT22;228;48.922;12.198;2022-12-20T01:23:40;1.20;73.50
484;DHT22;228;48.922;12.198;2022-12-20T01:26:09;1.20;73.50
484;DHT22;228;48.922;12.198;2022-12-20T01:28:40;1.40;73.40
484;DHT22;228;48.922;12.198;2022-12-20T01:31:11;1.30;73.40
484;DHT22;228;48.922;12.198;2022-12-20T01:33:39;1.60;72.80
484;DHT22;228;48.922;12.198;2022-12-20T01:36:09;1.80;72.30
484;DHT22;228;48.922;12.198;2022-12-20T01:38:36;2.00;71.20
484;DHT22;228;48.922;12.198;2022-12-20T01:41:03;2.30;69.80
484;DHT22;228;48.922;12.198;2022-12-20T01:46:28;2.60;69.40
484;DHT22;228;48.922;12.198;2022-12-20T01:49:06;2.10;69.20
484;DHT22;228;48.922;12.198;2022-12-20T01:51:40;1.80;71.10
484;DHT22;228;48.922;12.198;2022-12-20T01:54:18;1.80;71.40
484;DHT22;228;48.922;12.198;2022-12-20T01:56:51;1.90;71.70
484;DHT22;228;48.922;12.198;2022-12-20T01:59:20;1.80;71.30
484;DHT22;228;48.922;12.198;2022-12-20T02:01:46;1.60;71.60
484;DHT22;228;48.922;12.198;2022-12-20T02:04:12;1.50;72.20
484;DHT22;228;48.922;12.198;2022-12-20T02:06:38;1.50;72.80
484;DHT22;228;48.922;12.198;2022-12-20T02:09:05;1.40;72.40
484;DHT22;228;48.922;12.198;2022-12-20T02:11:45;1.70;72.10
484;DHT22;228;48.922;12.198;2022-12-20T02:29:32;1.20;74.10
484;DHT22;228;48.922;12.198;2022-12-20T02:34:42;1.60;72.70
484;DHT22;228;48.922;12.198;2022-12-20T02:37:09;1.80;72.10
484;DHT22;228;48.922;12.198;2022-12-20T02:39:39;2.00;70.80
484;DHT22;228;48.922;12.198;2022-12-20T02:42:14;2.00;70.60
484;DHT22;228;48.922;12.198;2022-12-20T02:44:47;1.70;71.00
484;DHT22;228;48.922;12.198;2022-12-20T02:47:58;2.20;70.40
484;DHT22;228;48.922;12.198;2022-12-20T02:50:39;2.50;68.50
484;DHT22;228;48.922;12.198;2022-12-20T02:53:08;2.40;68.60
484;DHT22;228;48.922;12.198;2022-12-20T02:55:51;2.40;68.90
484;DHT22;228;48.922;12.198;2022-12-20T02:58:48;2.20;69.00
484;DHT22;228;48.922;12.198;2022-12-20T03:01:24;2.20;69.50
484;DHT22;228;48.922;12.198;2022-12-20T03:03:54;2.10;69.70
484;DHT22;228;48.922;12.198;2022-12-20T03:06:21;2.30;69.30
484;DHT22;228;48.922;12.198;2022-12-20T03:08:47;2.40;68.90
484;DHT22;228;48.922;12.198;2022-12-20T03:11:14;2.60;68.30
484;DHT22;228;48.922;12.198;2022-12-20T03:13:40;2.50;67.90
484;DHT22;228;48.922;12.198;2022-12-20T03:16:08;2.40;68.50
484;DHT22;228;48.922;12.198;2022-12-20T03:18:36;2.10;68.90
484;DHT22;228;48.922;12.198;2022-12-20T03:21:03;2.10;69.50
484;DHT22;228;48.922;12.198;2022-12-20T03:23:30;2.10;69.40
484;DHT22;228;48.922;12.198;2022-12-20T03:25:56;1.90;69.40
484;DHT22;228;48.922;12.198;2022-12-20T03:28:48;1.60;70.70
484;DHT22;228;48.922;12.198;2022-12-20T03:31:18;1.30;71.50
484;DHT22;228;48.922;12.198;2022-12-20T03:33:49;1.30;71.80
484;DHT22;228;48.922;12.198;2022-12-20T03:36:15;1.40;72.30
484;DHT22;228;48.922;12.198;2022-12-20T03:38:42;1.80;71.70
484;DHT22;228;48.922;12.198;2022-12-20T03:41:08;1.70;71.00
484;DHT22;228;48.922;12.198;2022-12-20T03:43:34;1.70;71.00
484;DHT22;228;48.922;12.198;2022-12-20T03:46:01;1.80;70.70
484;DHT22;228;48.922;12.198;2022-12-20T03:48:31;1.70;70.70
484;DHT22;228;48.922;12.198;2022-12-20T03:50:57;1.70;71.30
484;DHT22;228;48.922;12.198;2022-12-20T03:53:23;1.80;70.90
484;DHT22;228;48.922;12.198;2022-12-20T03:55:50;1.80;70.70
484;DHT22;228;48.922;12.198;2022-12-20T03:58:16;1.70;71.20
484;DHT22;228;48.922;12.198;2022-12-20T04:00:42;1.90;70.40
484;DHT22;228;48.922;12.198;2022-12-20T04:03:34;1.80;70.60
484;DHT22;228;48.922;12.198;2022-12-20T04:06:00;1.70;70.80
484;DHT22;228;48.922;12.198;2022-12-20T04:08:27;1.50;71.80
484;DHT22;228;48.922;12.198;2022-12-20T04:10:53;1.30;72.10
484;DHT22;228;48.922;12.198;2022-12-20T04:13:40;1.20;72.80
484;DHT22;228;48.922;12.198;2022-12-20T04:16:07;1.10;73.40
484;DHT22;228;48.922;12.198;2022-12-20T04:18:33;1.50;73.00
484;DHT22;228;48.922;12.198;2022-12-20T04:21:00;1.80;71.50
484;DHT22;228;48.922;12.198;2022-12-20T04:23:29;2.30;70.40
484;DHT22;228;48.922;12.198;2022-12-20T04:25:55;2.10;69.40
484;DHT22;228;48.922;12.198;2022-12-20T04:28:21;2.20;69.50
484;DHT22;228;48.922;12.198;2022-12-20T04:30:49;2.30;69.20
484;DHT22;228;48.922;12.198;2022-12-20T04:33:21;2.00;69.40
484;DHT22;228;48.922;12.198;2022-12-20T04:35:48;1.90;70.60
484;DHT22;228;48.922;12.198;2022-12-20T04:38:14;1.80;70.60
484;DHT22;228;48.922;12.198;2022-12-20T04:40:40;1.50;71.00
484;DHT22;228;48.922;12.198;2022-12-20T04:43:07;1.20;71.70
484;DHT22;228;48.922;12.198;2022-12-20T04:45:33;1.10;72.30
484;DHT22;228;48.922;12.198;2022-12-20T04:48:00;0.90;72.90
484;DHT22;228;48.922;12.198;2022-12-20T04:50:34;0.90;73.50
484;DHT22;228;48.922;12.198;2022-12-20T04:53:00;0.40;75.20
484;DHT22;228;48.922;12.198;2022-12-20T04:55:45;0.90;74.80
484;DHT22;228;48.922;12.198;2022-12-20T04:58:11;1.10;73.20
484;DHT22;228;48.922;12.198;2022-12-20T05:00:39;0.80;74.10
484;DHT22;228;48.922;12.198;2022-12-20T05:03:19;1.00;74.00
484;DHT22;228;48.922;12.198;2022-12-20T05:05:46;0.90;73.20
484;DHT22;228;48.922;12.198;2022-12-20T05:08:12;1.00;73.70
484;DHT22;228;48.922;12.198;2022-12-20T05:10:39;1.20;73.10
484;DHT22;228;48.922;12.198;2022-12-20T05:13:05;1.30;72.90
484;DHT22;228;48.922;12.198;2022-12-20T05:15:36;1.60;71.40
484;DHT22;228;48.922;12.198;2022-12-20T05:18:03;1.50;71.10
484;DHT22;228;48.922;12.198;2022-12-20T05:20:40;1.40;71.50
484;DHT22;228;48.922;12.198;2022-12-20T05:23:07;1.10;72.60
484;DHT22;228;48.922;12.198;2022-12-20T05:25:59;0.90;73.60
484;DHT22;228;48.922;12.198;2022-12-20T05:28:43;0.90;74.20
484;DHT22;228;48.922;12.198;2022-12-20T05:31:10;1.10;72.90
484;DHT22;228;48.922;12.198;2022-12-20T05:33:36;1.50;72.40
484;DHT22;228;48.922;12.198;2022-12-20T05:36:04;1.40;71.60
484;DHT22;228;48.922;12.198;2022-12-20T05:38:30;1.20;72.50
484;DHT22;228;48.922;12.198;2022-12-20T05:40:56;1.10;72.50
484;DHT22;228;48.922;12.198;2022-12-20T05:43:23;1.30;72.70
484;DHT22;228;48.922;12.198;2022-12-20T05:45:51;1.70;71.50
484;DHT22;228;48.922;12.198;2022-12-20T05:48:24;1.70;70.30
484;DHT22;228;48.922;12.198;2022-12-20T05:50:51;1.20;71.50
484;DHT22;228;48.922;12.198;2022-12-20T05:53:37;1.10;72.80
484;DHT22;228;48.922;12.198;2022-12-20T05:56:05;1.30;73.00
484;DHT22;228;48.922;12.198;2022-12-20T05:58:34;1.30;72.70
484;DHT22;228;48.922;12.198;2022-12-20T06:01:05;1.60;72.00
484;DHT22;228;48.922;12.198;2022-12-20T06:04:04;1.20;72.60
484;DHT22;228;48.922;12.198;2022-12-20T06:06:31;1.20;73.00
484;DHT22;228;48.922;12.198;2022-12-20T06:08:57;1.40;72.50
484;DHT22;228;48.922;12.198;2022-12-20T06:11:47;1.20;73.00
484;DHT22;228;48.922;12.198;2022-12-20T06:14:14;1.10;73.90
484;DHT22;228;48.922;12.198;2022-12-20T06:16:44;0.90;74.50
484;DHT22;228;48.922;12.198;2022-12-20T06:19:11;1.10;75.00
484;DHT22;228;48.922;12.198;2022-12-20T06:21:39;1.10;76.90
484;DHT22;228;48.922;12.198;2022-12-20T06:24:07;1.50;75.60
484;DHT22;228;48.922;12.198;2022-12-20T06:26:37;1.40;75.30
484;DHT22;228;48.922;12.198;2022-12-20T06:29:05;1.10;74.90
484;DHT22;228;48.922;12.198;2022-12-20T06:31:43;1.20;75.00
484;DHT22;228;48.922;12.198;2022-12-20T06:34:09;1.10;74.60
484;DHT22;228;48.922;12.198;2022-12-20T06:36:39;1.40;74.80
484;DHT22;228;48.922;12.198;2022-12-20T06:39:08;1.40;73.70
484;DHT22;228;48.922;12.198;2022-12-20T06:41:36;1.70;73.60
484;DHT22;228;48.922;12.198;2022-12-20T06:44:03;1.40;73.80
484;DHT22;228;48.922;12.198;2022-12-20T06:46:29;1.40;73.50
484;DHT22;228;48.922;12.198;2022-12-20T06:48:56;1.30;74.30
484;DHT22;228;48.922;12.198;2022-12-20T06:51:22;1.30;75.10
484;DHT22;228;48.922;12.198;2022-12-20T06:53:49;1.50;74.60
484;DHT22;228;48.922;12.198;2022-12-20T06:56:15;1.30;74.80
484;DHT22;228;48.922;12.198;2022-12-20T06:58:41;1.20;75.30
484;DHT22;228;48.922;12.198;2022-12-20T07:01:07;1.30;75.30
484;DHT22;228;48.922;12.198;2022-12-20T07:03:33;1.30;74.70
484;DHT22;228;48.922;12.198;2022-12-20T07:05:59;1.40;74.80
484;DHT22;228;48.922;12.198;2022-12-20T07:08:25;1.60;74.10
484;DHT22;228;48.922;12.198;2022-12-20T07:10:51;1.50;73.70
484;DHT22;228;48.922;12.198;2022-12-20T07:13:19;1.60;74.00
484;DHT22;228;48.922;12.198;2022-12-20T07:15:45;1.80;73.60
484;DHT22;228;48.922;12.198;2022-12-20T07:18:11;1.80;73.30
484;DHT22;228;48.922;12.198;2022-12-20T07:20:38;2.00;72.30
484;DHT22;228;48.922;12.198;2022-12-20T07:23:05;2.10;72.50
484;DHT22;228;48.922;12.198;2022-12-20T07:25:31;2.20;71.30
484;DHT22;228;48.922;12.198;2022-12-20T07:27:57;2.00;71.30
484;DHT22;228;48.922;12.198;2022-12-20T07:30:23;2.10;71.60
484;DHT22;228;48.922;12.198;2022-12-20T07:32:50;1.80;72.20
484;DHT22;228;48.922;12.198;2022-12-20T07:35:16;2.20;72.10
484;DHT22;228;48.922;12.198;2022-12-20T07:37:43;2.10;71.20
484;DHT22;228;48.922;12.198;2022-12-20T07:40:10;2.20;71.60
484;DHT22;228;48.922;12.198;2022-12-20T07:42:36;2.30;71.00
484;DHT22;228;48.922;12.198;2022-12-20T07:45:04;2.10;70.90
484;DHT22;228;48.922;12.198;2022-12-20T07:47:31;2.00;72.10
484;DHT22;228;48.922;12.198;2022-12-20T07:49:57;2.10;71.90
484;DHT22;228;48.922;12.198;2022-12-20T07:52:23;2.40;71.60
484;DHT22;228;48.922;12.198;2022-12-20T07:55:02;2.60;70.20
484;DHT22;228;48.922;12.198;2022-12-20T07:57:37;3.00;69.00
484;DHT22;228;48.922;12.198;2022-12-20T08:00:08;3.00;69.10
484;DHT22;228;48.922;12.198;2022-12-20T08:02:41;3.00;68.30
484;DHT22;228;48.922;12.198;2022-12-20T08:05:11;3.10;68.10
484;DHT22;228;48.922;12.198;2022-12-20T08:07:39;3.20;67.90
484;DHT22;228;48.922;12.198;2022-12-20T08:10:08;3.00;68.10
484;DHT22;228;48.922;12.198;2022-12-20T08:12:36;3.00;68.20
484;DHT22;228;48.922;12.198;2022-12-20T08:15:03;2.80;68.60
484;DHT22;228;48.922;12.198;2022-12-20T08:17:29;2.90;69.80
484;DHT22;228;48.922;12.198;2022-12-20T08:19:55;2.90;68.60
484;DHT22;228;48.922;12.198;2022-12-20T08:22:22;2.80;69.20
484;DHT22;228;48.922;12.198;2022-12-20T08:24:48;3.40;68.90
484;DHT22;228;48.922;12.198;2022-12-20T08:27:14;3.60;67.20
484;DHT22;228;48.922;12.198;2022-12-20T08:29:40;4.00;66.20
484;DHT22;228;48.922;12.198;2022-12-20T08:32:06;4.30;64.70
484;DHT22;228;48.922;12.198;2022-12-20T08:34:32;4.00;64.70
484;DHT22;228;48.922;12.198;2022-12-20T08:36:58;4.40;64.10
484;DHT22;228;48.922;12.198;2022-12-20T08:39:24;4.30;64.00
484;DHT22;228;48.922;12.198;2022-12-20T08:41:50;4.10;64.60
484;DHT22;228;48.922;12.198;2022-12-20T08:44:16;4.10;63.90
484;DHT22;228;48.922;12.198;2022-12-20T08:46:42;3.70;65.20
484;DHT22;228;48.922;12.198;2022-12-20T08:49:08;4.00;66.10
484;DHT22;228;48.922;12.198;2022-12-20T08:51:34;4.20;65.00
484;DHT22;228;48.922;12.198;2022-12-20T08:54:00;4.20;64.60
484;DHT22;228;48.922;12.198;2022-12-20T08:56:27;4.00;65.00
484;DHT22;228;48.922;12.198;2022-12-20T08:58:53;4.00;65.00
484;DHT22;228;48.922;12.198;2022-12-20T09:01:20;4.00;65.90
484;DHT22;228;48.922;12.198;2022-12-20T09:03:47;4.20;65.10
484;DHT22;228;48.922;12.198;2022-12-20T09:06:16;4.10;65.10
484;DHT22;228;48.922;12.198;2022-12-20T09:08:43;3.90;66.20
484;DHT22;228;48.922;12.198;2022-12-20T09:11:23;3.60;67.10
484;DHT22;228;48.922;12.198;2022-12-20T09:13:53;3.70;67.90
484;DHT22;228;48.922;12.198;2022-12-20T09:16:22;4.00;66.30
484;DHT22;228;48.922;12.198;2022-12-20T09:18:52;4.30;65.40
484;DHT22;228;48.922;12.198;2022-12-20T09:21:21;4.30;64.70
484;DHT22;228;48.922;12.198;2022-12-20T09:23:49;4.40;64.80
484;DHT22;228;48.922;12.198;2022-12-20T09:26:17;4.60;64.40
484;DHT22;228;48.922;12.198;2022-12-20T09:28:47;4.50;64.10
484;DHT22;228;48.922;12.198;2022-12-20T09:31:22;4.50;64.50
484;DHT22;228;48.922;12.198;2022-12-20T09:33:51;3.90;65.30
484;DHT22;228;48.922;12.198;2022-12-20T09:36:19;4.30;65.70
484;DHT22;228;48.922;12.198;2022-12-20T09:38:47;4.40;65.10
484;DHT22;228;48.922;12.198;2022-12-20T09:41:40;4.90;64.50
484;DHT22;228;48.922;12.198;2022-12-20T09:44:28;4.80;62.40
484;DHT22;228;48.922;12.198;2022-12-20T09:47:04;4.90;63.60
484;DHT22;228;48.922;12.198;2022-12-20T09:49:34;4.90;63.70
484;DHT22;228;48.922;12.198;2022-12-20T10:00:47;5.20;62.20
484;DHT22;228;48.922;12.198;2022-12-20T10:03:30;5.60;61.40
484;DHT22;228;48.922;12.198;2022-12-20T10:09:02;6.50;59.60
484;DHT22;228;48.922;12.198;2022-12-20T10:14:59;7.00;57.60
484;DHT22;228;48.922;12.198;2022-12-20T10:25:39;6.50;58.20
484;DHT22;228;48.922;12.198;2022-12-20T10:28:16;6.40;58.30
484;DHT22;228;48.922;12.198;2022-12-20T10:30:45;6.70;58.60
484;DHT22;228;48.922;12.198;2022-12-20T10:33:19;6.80;57.90
484;DHT22;228;48.922;12.198;2022-12-20T10:35:47;6.70;57.80
484;DHT22;228;48.922;12.198;2022-12-20T10:38:14;6.90;57.70
484;DHT22;228;48.922;12.198;2022-12-20T10:40:44;7.00;57.40
484;DHT22;228;48.922;12.198;2022-12-20T10:43:17;6.90;56.80
484;DHT22;228;48.922;12.198;2022-12-20T10:45:56;7.00;57.10
484;DHT22;228;48.922;12.198;2022-12-20T10:48:30;7.40;56.60
484;DHT22;228;48.922;12.198;2022-12-20T10:53:33;7.10;55.50
484;DHT22;228;48.922;12.198;2022-12-20T10:59:22;6.80;57.20
484;DHT22;228;48.922;12.198;2022-12-20T11:01:59;7.30;56.40
484;DHT22;228;48.922;12.198;2022-12-20T11:04:31;7.80;55.30
484;DHT22;228;48.922;12.198;2022-12-20T11:07:02;7.50;55.10
484;DHT22;228;48.922;12.198;2022-12-20T11:09:36;7.10;56.20
484;DHT22;228;48.922;12.198;2022-12-20T11:12:16;6.80;57.20
484;DHT22;228;48.922;12.198;2022-12-20T11:14:44;6.30;58.30
484;DHT22;228;48.922;12.198;2022-12-20T11:17:35;5.80;59.70
484;DHT22;228;48.922;12.198;2022-12-20T11:20:27;5.80;60.60
484;DHT22;228;48.922;12.198;2022-12-20T11:23:12;6.10;60.10
484;DHT22;228;48.922;12.198;2022-12-20T11:35:12;5.90;60.30
484;DHT22;228;48.922;12.198;2022-12-20T11:38:01;5.90;60.40
484;DHT22;228;48.922;12.198;2022-12-20T11:41:27;5.80;60.90
484;DHT22;228;48.922;12.198;2022-12-20T11:43:55;5.90;59.80
484;DHT22;228;48.922;12.198;2022-12-20T11:52:59;5.10;63.70
484;DHT22;228;48.922;12.198;2022-12-20T11:55:51;6.00;61.30
484;DHT22;228;48.922;12.198;2022-12-20T11:58:30;6.00;59.70
484;DHT22;228;48.922;12.198;2022-12-20T12:01:03;6.20;59.40
484;DHT22;228;48.922;12.198;2022-12-20T12:03:36;6.70;59.30
484;DHT22;228;48.922;12.198;2022-12-20T12:06:07;7.20;57.80
484;DHT22;228;48.922;12.198;2022-12-20T12:08:48;7.50;57.40
484;DHT22;228;48.922;12.198;2022-12-20T12:11:29;6.80;57.90
484;DHT22;228;48.922;12.198;2022-12-20T12:13:58;6.30;59.20
484;DHT22;228;48.922;12.198;2022-12-20T12:16:36;5.80;60.60
484;DHT22;228;48.922;12.198;2022-12-20T12:19:08;5.60;62.40
484;DHT22;228;48.922;12.198;2022-12-20T12:21:43;5.80;62.00
484;DHT22;228;48.922;12.198;2022-12-20T12:24:28;5.60;62.10
484;DHT22;228;48.922;12.198;2022-12-20T12:26:58;5.50;63.30
484;DHT22;228;48.922;12.198;2022-12-20T12:29:28;5.00;63.50
484;DHT22;228;48.922;12.198;2022-12-20T12:32:09;4.80;64.50
484;DHT22;228;48.922;12.198;2022-12-20T12:37:45;5.80;63.80
484;DHT22;228;48.922;12.198;2022-12-20T12:43:40;5.70;62.10
484;DHT22;228;48.922;12.198;2022-12-20T12:49:01;6.50;60.00
484;DHT22;228;48.922;12.198;2022-12-20T12:51:34;5.80;61.20
484;DHT22;228;48.922;12.198;2022-12-20T12:56:48;5.00;64.20
484;DHT22;228;48.922;12.198;2022-12-20T12:59:42;5.10;63.90
484;DHT22;228;48.922;12.198;2022-12-20T13:17:54;5.70;64.00
484;DHT22;228;48.922;12.198;2022-12-20T13:20:29;5.90;62.90
484;DHT22;228;48.922;12.198;2022-12-20T13:25:41;6.10;62.10
484;DHT22;228;48.922;12.198;2022-12-20T13:33:48;6.30;61.60
484;DHT22;228;48.922;12.198;2022-12-20T13:36:31;6.00;61.30
484;DHT22;228;48.922;12.198;2022-12-20T13:41:52;5.90;63.00
484;DHT22;228;48.922;12.198;2022-12-20T13:44:42;6.20;61.70
484;DHT22;228;48.922;12.198;2022-12-20T13:47:33;6.20;61.30
484;DHT22;228;48.922;12.198;2022-12-20T13:50:27;6.30;62.10
484;DHT22;228;48.922;12.198;2022-12-20T13:52:57;6.10;61.20
484;DHT22;228;48.922;12.198;2022-12-20T13:55:31;6.10;62.20
484;DHT22;228;48.922;12.198;2022-12-20T13:58:08;6.00;63.00
484;DHT22;228;48.922;12.198;2022-12-20T14:00:37;6.30;62.30
484;DHT22;228;48.922;12.198;2022-12-20T14:03:04;6.00;62.30
484;DHT22;228;48.922;12.198;2022-12-20T14:05:37;6.10;62.30
484;DHT22;228;48.922;12.198;2022-12-20T14:08:11;5.80;62.40
484;DHT22;228;48.922;12.198;2022-12-20T14:10:39;5.20;64.60
484;DHT22;228;48.922;12.198;2022-12-20T14:13:25;4.80;66.10
484;DHT22;228;48.922;12.198;2022-12-20T14:15:53;4.80;66.70
484;DHT22;228;48.922;12.198;2022-12-20T14:18:25;4.50;67.10
484;DHT22;228;48.922;12.198;2022-12-20T14:20:55;4.20;69.00
484;DHT22;228;48.922;12.198;2022-12-20T14:23:25;4.00;69.90
484;DHT22;228;48.922;12.198;2022-12-20T14:26:00;3.70;71.00
484;DHT22;228;48.922;12.198;2022-12-20T14:28:38;3.50;71.70
484;DHT22;228;48.922;12.198;2022-12-20T14:31:06;3.60;72.00
484;DHT22;228;48.922;12.198;2022-12-20T14:36:43;3.70;71.30
484;DHT22;228;48.922;12.198;2022-12-20T14:39:28;3.80;71.40
484;DHT22;228;48.922;12.198;2022-12-20T14:42:11;4.40;70.70
484;DHT22;228;48.922;12.198;2022-12-20T14:44:38;4.50;69.40
484;DHT22;228;48.922;12.198;2022-12-20T14:47:26;4.00;69.70
484;DHT22;228;48.922;12.198;2022-12-20T14:50:02;4.20;70.50
484;DHT22;228;48.922;12.198;2022-12-20T14:52:36;4.60;69.50
484;DHT22;228;48.922;12.198;2022-12-20T14:55:12;4.50;68.80
484;DHT22;228;48.922;12.198;2022-12-20T14:57:49;4.20;70.00
484;DHT22;228;48.922;12.198;2022-12-20T15:00:21;3.80;71.30
484;DHT22;228;48.922;12.198;2022-12-20T15:08:13;3.50;71.60
484;DHT22;228;48.922;12.198;2022-12-20T15:13:39;4.10;71.40
484;DHT22;228;48.922;12.198;2022-12-20T15:16:25;3.50;72.20
484;DHT22;228;48.922;12.198;2022-12-20T15:18:59;3.00;73.90
484;DHT22;228;48.922;12.198;2022-12-20T15:21:30;2.80;75.70
484;DHT22;228;48.922;12.198;2022-12-20T15:23:59;2.70;76.20
484;DHT22;228;48.922;12.198;2022-12-20T15:26:28;3.10;76.10
484;DHT22;228;48.922;12.198;2022-12-20T15:28:55;3.10;74.60
484;DHT22;228;48.922;12.198;2022-12-20T15:31:23;3.20;74.60
484;DHT22;228;48.922;12.198;2022-12-20T15:33:50;3.90;73.70
484;DHT22;228;48.922;12.198;2022-12-20T15:36:24;4.00;71.50
484;DHT22;228;48.922;12.198;2022-12-20T15:38:52;3.60;72.40
484;DHT22;228;48.922;12.198;2022-12-20T15:44:05;3.60;72.50
484;DHT22;228;48.922;12.198;2022-12-20T15:46:32;3.60;73.00
484;DHT22;228;48.922;12.198;2022-12-20T15:48:58;3.30;73.30
484;DHT22;228;48.922;12.198;2022-12-20T15:51:31;3.70;72.80
484;DHT22;228;48.922;12.198;2022-12-20T15:54:00;3.90;71.40
484;DHT22;228;48.922;12.198;2022-12-20T15:56:29;3.70;72.20
484;DHT22;228;48.922;12.198;2022-12-20T15:58:55;3.70;72.50
484;DHT22;228;48.922;12.198;2022-12-20T16:01:24;3.90;71.30
484;DHT22;228;48.922;12.198;2022-12-20T16:03:53;3.90;71.40
484;DHT22;228;48.922;12.198;2022-12-20T16:06:19;3.60;72.50
484;DHT22;228;48.922;12.198;2022-12-20T16:08:45;3.60;73.10
484;DHT22;228;48.922;12.198;2022-12-20T16:11:23;3.60;72.70
484;DHT22;228;48.922;12.198;2022-12-20T16:13:54;3.60;73.40
484;DHT22;228;48.922;12.198;2022-12-20T16:16:27;3.50;73.60
484;DHT22;228;48.922;12.198;2022-12-20T16:18:55;3.60;73.50
484;DHT22;228;48.922;12.198;2022-12-20T16:21:29;3.70;73.40
484;DHT22;228;48.922;12.198;2022-12-20T16:23:57;3.80;72.30
484;DHT22;228;48.922;12.198;2022-12-20T16:26:24;3.70;72.40
484;DHT22;228;48.922;12.198;2022-12-20T16:28:52;4.10;71.60
484;DHT22;228;48.922;12.198;2022-12-20T16:31:39;3.80;71.50
484;DHT22;228;48.922;12.198;2022-12-20T16:34:12;3.50;73.40
484;DHT22;228;48.922;12.198;2022-12-20T16:36:39;3.80;72.70
484;DHT22;228;48.922;12.198;2022-12-20T16:39:05;3.80;72.40
484;DHT22;228;48.922;12.198;2022-12-20T16:41:32;4.00;72.00
484;DHT22;228;48.922;12.198;2022-12-20T16:44:00;4.30;71.00
484;DHT22;228;48.922;12.198;2022-12-20T16:46:29;4.30;70.90
484;DHT22;228;48.922;12.198;2022-12-20T16:48:57;4.10;71.00
484;DHT22;228;48.922;12.198;2022-12-20T16:51:25;3.80;71.40
484;DHT22;228;48.922;12.198;2022-12-20T16:53:54;4.00;72.20
484;DHT22;228;48.922;12.198;2022-12-20T16:56:22;4.50;71.40
484;DHT22;228;48.922;12.198;2022-12-20T16:58:48;4.60;69.70
484;DHT22;228;48.922;12.198;2022-12-20T17:01:23;4.80;69.50
484;DHT22;228;48.922;12.198;2022-12-20T17:03:52;4.80;68.70
484;DHT22;228;48.922;12.198;2022-12-20T17:06:18;4.90;68.90
484;DHT22;228;48.922;12.198;2022-12-20T17:08:45;4.90;68.40
484;DHT22;228;48.922;12.198;2022-12-20T17:11:23;5.00;68.30
484;DHT22;228;48.922;12.198;2022-12-20T17:13:53;4.50;69.80
484;DHT22;228;48.922;12.198;2022-12-20T17:16:21;4.10;70.30
484;DHT22;228;48.922;12.198;2022-12-20T17:18:49;4.30;70.70
484;DHT22;228;48.922;12.198;2022-12-20T17:23:58;4.40;70.10
484;DHT22;228;48.922;12.198;2022-12-20T17:26:27;3.90;71.20
484;DHT22;228;48.922;12.198;2022-12-20T17:28:55;3.90;71.40
484;DHT22;228;48.922;12.198;2022-12-20T17:33:59;3.30;72.80
484;DHT22;228;48.922;12.198;2022-12-20T17:36:27;3.20;73.30
484;DHT22;228;48.922;12.198;2022-12-20T17:38:53;3.30;71.20
484;DHT22;228;48.922;12.198;2022-12-20T17:41:28;3.20;72.50
484;DHT22;228;48.922;12.198;2022-12-20T17:43:57;3.40;73.90
484;DHT22;228;48.922;12.198;2022-12-20T17:46:25;3.40;73.10
484;DHT22;228;48.922;12.198;2022-12-20T17:48:51;3.30;72.90
484;DHT22;228;48.922;12.198;2022-12-20T17:51:27;3.30;72.80
484;DHT22;228;48.922;12.198;2022-12-20T17:53:56;3.40;72.80
484;DHT22;228;48.922;12.198;2022-12-20T17:56:29;3.40;73.00
484;DHT22;228;48.922;12.198;2022-12-20T17:58:58;3.00;73.50
484;DHT22;228;48.922;12.198;2022-12-20T18:01:32;3.00;73.70
484;DHT22;228;48.922;12.198;2022-12-20T18:06:52;3.10;74.40
484;DHT22;228;48.922;12.198;2022-12-20T18:09:20;2.60;74.40
484;DHT22;228;48.922;12.198;2022-12-20T18:11:46;2.20;76.20
484;DHT22;228;48.922;12.198;2022-12-20T18:14:13;2.20;77.30
484;DHT22;228;48.922;12.198;2022-12-20T18:16:40;2.30;76.80
484;DHT22;228;48.922;12.198;2022-12-20T18:19:07;2.20;76.50
484;DHT22;228;48.922;12.198;2022-12-20T18:21:40;2.40;75.90
484;DHT22;228;48.922;12.198;2022-12-20T18:24:09;2.80;75.50
484;DHT22;228;48.922;12.198;2022-12-20T18:26:36;2.90;74.40
484;DHT22;228;48.922;12.198;2022-12-20T18:29:02;2.80;74.10
484;DHT22;228;48.922;12.198;2022-12-20T18:31:30;2.80;74.60
484;DHT22;228;48.922;12.198;2022-12-20T18:33:57;2.70;74.70
484;DHT22;228;48.922;12.198;2022-12-20T18:36:29;3.00;74.50
484;DHT22;228;48.922;12.198;2022-12-20T18:38:58;2.90;73.70
484;DHT22;228;48.922;12.198;2022-12-20T18:41:28;3.30;73.00
484;DHT22;228;48.922;12.198;2022-12-20T18:44:03;3.20;72.30
484;DHT22;228;48.922;12.198;2022-12-20T18:46:31;3.60;71.40
484;DHT22;228;48.922;12.198;2022-12-20T18:48:59;3.80;70.50
484;DHT22;228;48.922;12.198;2022-12-20T18:51:31;3.80;70.50
484;DHT22;228;48.922;12.198;2022-12-20T18:54:01;3.90;70.00
484;DHT22;228;48.922;12.198;2022-12-20T18:56:29;4.40;68.80
484;DHT22;228;48.922;12.198;2022-12-20T18:58:58;4.50;68.00
484;DHT22;228;48.922;12.198;2022-12-20T19:01:28;4.70;67.40
484;DHT22;228;48.922;12.198;2022-12-20T19:03:55;4.70;66.70
484;DHT22;228;48.922;12.198;2022-12-20T19:06:22;4.40;66.50